sensor_id;sensor_type;location;lat;lon;timestamp;temperature;humidity
65692;DHT22;52411;52.716;6.696;2023-02-04T00:00:51;6.80;99.90
65692;DHT22;52411;52.716;6.696;2023-02-04T00:03:16;6.80;99.90
65692;DHT22;52411;52.716;6.696;2023-02-04T00:05:42;6.80;99.90
65692;DHT22;52411;52.716;6.696;2023-02-04T00:08:08;6.80;99.90
65692;DHT22;52411;52.716;6.696;2023-02-04T00:10:35;6.80;99.90
65692;DHT22;52411;52.716;6.696;2023-02-04T00:13:02;6.80;99.90
65692;DHT22;52411;52.716;6.696;2023-02-04T00:15:28;6.80;99.90
65692;DHT22;52411;52.716;6.696;2023-02-04T00:17:54;6.80;99.90
65692;DHT22;52411;52.716;6.696;2023-02-04T00:20:19;6.80;99.90
65692;DHT22;52411;52.716;6.696;2023-02-04T00:22:45;6.80;99.90
65692;DHT22;52411;52.716;6.696;2023-02-04T00:25:11;6.80;99.90
65692;DHT22;52411;52.716;6.696;2023-02-04T00:27:37;6.80;99.90
65692;DHT22;52411;52.716;6.696;2023-02-04T00:30:04;6.80;99.90
65692;DHT22;52411;52.716;6.696;2023-02-04T00:32:29;6.80;99.90
65692;DHT22;52411;52.716;6.696;2023-02-04T00:34:55;6.80;99.90
65692;DHT22;52411;52.716;6.696;2023-02-04T00:37:21;6.80;99.90
65692;DHT22;52411;52.716;6.696;2023-02-04T00:39:47;6.80;99.90
65692;DHT22;52411;52.716;6.696;2023-02-04T00:42:12;6.80;99.90
65692;DHT22;52411;52.716;6.696;2023-02-04T00:44:38;6.80;99.90
65692;DHT22;52411;52.716;6.696;2023-02-04T00:47:04;6.80;99.90
65692;DHT22;52411;52.716;6.696;2023-02-04T00:49:29;6.80;99.90
65692;DHT22;52411;52.716;6.696;2023-02-04T00:51:55;6.80;99.90
65692;DHT22;52411;52.716;6.696;2023-02-04T00:54:21;6.80;99.90
65692;DHT22;52411;52.716;6.696;2023-02-04T00:56:46;6.80;99.90
65692;DHT22;52411;52.716;6.696;2023-02-04T00:59:12;6.80;99.90
65692;DHT22;52411;52.716;6.696;2023-02-04T01:01:38;6.80;99.90
65692;DHT22;52411;52.716;6.696;2023-02-04T01:04:04;6.80;99.90
65692;DHT22;52411;52.716;6.696;2023-02-04T01:06:30;6.80;99.90
65692;DHT22;52411;52.716;6.696;2023-02-04T01:08:55;6.80;99.90
65692;DHT22;52411;52.716;6.696;2023-02-04T01:11:21;6.80;99.90
65692;DHT22;52411;52.716;6.696;2023-02-04T01:13:46;6.80;99.90
65692;DHT22;52411;52.716;6.696;2023-02-04T01:16:12;6.80;99.90
65692;DHT22;52411;52.716;6.696;2023-02-04T01:18:38;6.80;99.90
65692;DHT22;52411;52.716;6.696;2023-02-04T01:21:03;6.80;99.90
65692;DHT22;52411;52.716;6.696;2023-02-04T01:23:29;6.80;99.90
65692;DHT22;52411;52.716;6.696;2023-02-04T01:25:55;6.80;99.90
65692;DHT22;52411;52.716;6.696;2023-02-04T01:28:21;6.80;99.90
65692;DHT22;52411;52.716;6.696;2023-02-04T01:30:46;6.80;99.90
65692;DHT22;52411;52.716;6.696;2023-02-04T01:33:12;6.80;99.90
65692;DHT22;52411;52.716;6.696;2023-02-04T01:35:38;6.90;99.90
65692;DHT22;52411;52.716;6.696;2023-02-04T01:38:03;6.90;99.90
65692;DHT22;52411;52.716;6.696;2023-02-04T01:40:29;6.90;99.90
65692;DHT22;52411;52.716;6.696;2023-02-04T01:42:55;6.80;99.90
65692;DHT22;52411;52.716;6.696;2023-02-04T01:45:20;6.80;99.90
65692;DHT22;52411;52.716;6.696;2023-02-04T01:47:46;6.80;99.90
65692;DHT22;52411;52.716;6.696;2023-02-04T01:50:14;6.90;99.90
65692;DHT22;52411;52.716;6.696;2023-02-04T01:52:41;6.80;99.90
65692;DHT22;52411;52.716;6.696;2023-02-04T01:55:17;6.90;99.90
65692;DHT22;52411;52.716;6.696;2023-02-04T01:57:43;6.90;99.90
65692;DHT22;52411;52.716;6.696;2023-02-04T02:00:14;6.90;99.90
65692;DHT22;52411;52.716;6.696;2023-02-04T02:02:46;6.90;99.90
65692;DHT22;52411;52.716;6.696;2023-02-04T02:05:19;6.90;99.90
65692;DHT22;52411;52.716;6.696;2023-02-04T02:07:48;6.90;99.90
65692;DHT22;52411;52.716;6.696;2023-02-04T02:10:16;6.90;99.90
65692;DHT22;52411;52.716;6.696;2023-02-04T02:12:43;6.90;99.90
65692;DHT22;52411;52.716;6.696;2023-02-04T02:15:10;6.90;99.90
65692;DHT22;52411;52.716;6.696;2023-02-04T02:17:36;6.80;99.90
65692;DHT22;52411;52.716;6.696;2023-02-04T02:20:04;6.80;99.90
65692;DHT22;52411;52.716;6.696;2023-02-04T02:25:11;6.90;99.90
65692;DHT22;52411;52.716;6.696;2023-02-04T02:27:37;6.80;99.90
65692;DHT22;52411;52.716;6.696;2023-02-04T02:30:04;6.90;99.90
65692;DHT22;52411;52.716;6.696;2023-02-04T02:32:30;6.80;99.90
65692;DHT22;52411;52.716;6.696;2023-02-04T02:34:55;6.90;99.90
65692;DHT22;52411;52.716;6.696;2023-02-04T02:37:21;6.90;99.90
65692;DHT22;52411;52.716;6.696;2023-02-04T02:39:46;6.90;99.90
65692;DHT22;52411;52.716;6.696;2023-02-04T02:42:15;6.90;99.90
65692;DHT22;52411;52.716;6.696;2023-02-04T02:44:42;6.90;99.90
65692;DHT22;52411;52.716;6.696;2023-02-04T02:47:15;6.90;99.90
65692;DHT22;52411;52.716;6.696;2023-02-04T02:49:41;6.90;99.90
65692;DHT22;52411;52.716;6.696;2023-02-04T02:52:12;6.90;99.90
65692;DHT22;52411;52.716;6.696;2023-02-04T02:54:38;6.90;99.90
65692;DHT22;52411;52.716;6.696;2023-02-04T02:57:16;6.90;99.90
65692;DHT22;52411;52.716;6.696;2023-02-04T02:59:43;6.90;99.90
65692;DHT22;52411;52.716;6.696;2023-02-04T03:02:11;6.90;99.90
65692;DHT22;52411;52.716;6.696;2023-02-04T03:04:41;6.90;99.90
65692;DHT22;52411;52.716;6.696;2023-02-04T03:07:09;6.90;99.90
65692;DHT22;52411;52.716;6.696;2023-02-04T03:09:36;7.00;99.90
65692;DHT22;52411;52.716;6.696;2023-02-04T03:12:02;6.90;99.90
65692;DHT22;52411;52.716;6.696;2023-02-04T03:14:29;7.00;99.90
65692;DHT22;52411;52.716;6.696;2023-02-04T03:16:55;7.00;99.90
65692;DHT22;52411;52.716;6.696;2023-02-04T03:19:23;6.90;99.90
65692;DHT22;52411;52.716;6.696;2023-02-04T03:21:49;7.00;99.90
65692;DHT22;52411;52.716;6.696;2023-02-04T03:24:15;7.00;99.90
65692;DHT22;52411;52.716;6.696;2023-02-04T03:26:41;7.00;99.90
65692;DHT22;52411;52.716;6.696;2023-02-04T03:29:09;7.00;99.90
65692;DHT22;52411;52.716;6.696;2023-02-04T03:31:35;6.90;99.90
65692;DHT22;52411;52.716;6.696;2023-02-04T03:34:02;7.00;99.90
65692;DHT22;52411;52.716;6.696;2023-02-04T03:36:28;7.00;99.90
65692;DHT22;52411;52.716;6.696;2023-02-04T03:38:54;7.00;99.90
65692;DHT22;52411;52.716;6.696;2023-02-04T03:41:20;7.00;99.90
65692;DHT22;52411;52.716;6.696;2023-02-04T03:43:46;7.00;99.90
65692;DHT22;52411;52.716;6.696;2023-02-04T03:46:12;6.90;99.90
65692;DHT22;52411;52.716;6.696;2023-02-04T03:48:37;7.00;99.90
65692;DHT22;52411;52.716;6.696;2023-02-04T03:51:03;6.90;99.90
65692;DHT22;52411;52.716;6.696;2023-02-04T03:53:29;6.90;99.90
65692;DHT22;52411;52.716;6.696;2023-02-04T03:55:54;6.90;99.90
65692;DHT22;52411;52.716;6.696;2023-02-04T03:58:20;6.90;99.90
65692;DHT22;52411;52.716;6.696;2023-02-04T04:00:46;6.90;99.90
65692;DHT22;52411;52.716;6.696;2023-02-04T04:03:11;6.90;99.90
65692;DHT22;52411;52.716;6.696;2023-02-04T04:05:37;6.90;99.90
65692;DHT22;52411;52.716;6.696;2023-02-04T04:08:03;6.80;99.90
65692;DHT22;52411;52.716;6.696;2023-02-04T04:10:28;6.80;99.90
65692;DHT22;52411;52.716;6.696;2023-02-04T04:12:54;6.80;99.90
65692;DHT22;52411;52.716;6.696;2023-02-04T04:15:20;6.80;99.90
65692;DHT22;52411;52.716;6.696;2023-02-04T04:17:45;6.80;99.90
65692;DHT22;52411;52.716;6.696;2023-02-04T04:20:11;6.80;99.90
65692;DHT22;52411;52.716;6.696;2023-02-04T04:22:37;6.80;99.90
65692;DHT22;52411;52.716;6.696;2023-02-04T04:25:03;6.80;99.90
65692;DHT22;52411;52.716;6.696;2023-02-04T04:27:29;6.80;99.90
65692;DHT22;52411;52.716;6.696;2023-02-04T04:29:55;6.80;99.90
65692;DHT22;52411;52.716;6.696;2023-02-04T04:32:21;6.80;99.90
65692;DHT22;52411;52.716;6.696;2023-02-04T04:34:46;6.80;99.90
65692;DHT22;52411;52.716;6.696;2023-02-04T04:37:12;6.80;99.90
65692;DHT22;52411;52.716;6.696;2023-02-04T04:39:37;6.90;99.90
65692;DHT22;52411;52.716;6.696;2023-02-04T04:42:03;6.80;99.90
65692;DHT22;52411;52.716;6.696;2023-02-04T04:44:29;6.90;99.90
65692;DHT22;52411;52.716;6.696;2023-02-04T04:46:54;6.90;99.90
65692;DHT22;52411;52.716;6.696;2023-02-04T04:49:20;6.80;99.90
65692;DHT22;52411;52.716;6.696;2023-02-04T04:51:46;6.80;99.90
65692;DHT22;52411;52.716;6.696;2023-02-04T04:54:11;6.80;99.90
65692;DHT22;52411;52.716;6.696;2023-02-04T04:56:37;6.80;99.90
65692;DHT22;52411;52.716;6.696;2023-02-04T04:59:02;6.90;99.90
65692;DHT22;52411;52.716;6.696;2023-02-04T05:01:28;6.80;99.90
65692;DHT22;52411;52.716;6.696;2023-02-04T05:03:54;6.90;99.90
65692;DHT22;52411;52.716;6.696;2023-02-04T05:06:19;6.80;99.90
65692;DHT22;52411;52.716;6.696;2023-02-04T05:08:50;6.80;99.90
65692;DHT22;52411;52.716;6.696;2023-02-04T05:11:16;6.80;99.90
65692;DHT22;52411;52.716;6.696;2023-02-04T05:13:42;6.80;99.90
65692;DHT22;52411;52.716;6.696;2023-02-04T05:16:07;6.80;99.90
65692;DHT22;52411;52.716;6.696;2023-02-04T05:18:36;6.80;99.90
65692;DHT22;52411;52.716;6.696;2023-02-04T05:21:02;6.80;99.90
65692;DHT22;52411;52.716;6.696;2023-02-04T05:23:28;6.80;99.90
65692;DHT22;52411;52.716;6.696;2023-02-04T05:25:53;6.80;99.90
65692;DHT22;52411;52.716;6.696;2023-02-04T05:28:19;6.80;99.90
65692;DHT22;52411;52.716;6.696;2023-02-04T05:30:45;6.80;99.90
65692;DHT22;52411;52.716;6.696;2023-02-04T05:33:10;6.80;99.90
65692;DHT22;52411;52.716;6.696;2023-02-04T05:35:36;6.70;99.90
65692;DHT22;52411;52.716;6.696;2023-02-04T05:38:01;6.70;99.90
65692;DHT22;52411;52.716;6.696;2023-02-04T05:40:27;6.70;99.90
65692;DHT22;52411;52.716;6.696;2023-02-04T05:42:52;6.70;99.90
65692;DHT22;52411;52.716;6.696;2023-02-04T05:45:18;6.70;99.90
65692;DHT22;52411;52.716;6.696;2023-02-04T05:47:44;6.70;99.90
65692;DHT22;52411;52.716;6.696;2023-02-04T05:50:09;6.70;99.90
65692;DHT22;52411;52.716;6.696;2023-02-04T05:52:35;6.60;99.90
65692;DHT22;52411;52.716;6.696;2023-02-04T05:55:01;6.60;99.90
65692;DHT22;52411;52.716;6.696;2023-02-04T05:57:26;6.60;99.90
65692;DHT22;52411;52.716;6.696;2023-02-04T05:59:52;6.60;99.90
65692;DHT22;52411;52.716;6.696;2023-02-04T06:02:18;6.60;99.90
65692;DHT22;52411;52.716;6.696;2023-02-04T06:04:44;6.60;99.90
65692;DHT22;52411;52.716;6.696;2023-02-04T06:07:09;6.60;99.90
65692;DHT22;52411;52.716;6.696;2023-02-04T06:09:35;6.60;99.90
65692;DHT22;52411;52.716;6.696;2023-02-04T06:12:01;6.50;99.90
65692;DHT22;52411;52.716;6.696;2023-02-04T06:14:27;6.50;99.90
65692;DHT22;52411;52.716;6.696;2023-02-04T06:16:52;6.50;99.90
65692;DHT22;52411;52.716;6.696;2023-02-04T06:19:18;6.50;99.90
65692;DHT22;52411;52.716;6.696;2023-02-04T06:21:43;6.50;99.90
65692;DHT22;52411;52.716;6.696;2023-02-04T06:24:09;6.40;99.90
65692;DHT22;52411;52.716;6.696;2023-02-04T06:26:35;6.40;99.90
65692;DHT22;52411;52.716;6.696;2023-02-04T06:29:01;6.40;99.90
65692;DHT22;52411;52.716;6.696;2023-02-04T06:31:26;6.40;99.90
65692;DHT22;52411;52.716;6.696;2023-02-04T06:33:52;6.40;99.90
65692;DHT22;52411;52.716;6.696;2023-02-04T06:36:17;6.40;99.90
65692;DHT22;52411;52.716;6.696;2023-02-04T06:38:43;6.40;99.90
65692;DHT22;52411;52.716;6.696;2023-02-04T06:41:08;6.40;99.90
65692;DHT22;52411;52.716;6.696;2023-02-04T06:43:34;6.30;99.90
65692;DHT22;52411;52.716;6.696;2023-02-04T06:46:00;6.30;99.90
65692;DHT22;52411;52.716;6.696;2023-02-04T06:48:25;6.30;99.90
65692;DHT22;52411;52.716;6.696;2023-02-04T06:50:51;6.30;99.90
65692;DHT22;52411;52.716;6.696;2023-02-04T06:53:17;6.20;99.90
65692;DHT22;52411;52.716;6.696;2023-02-04T06:55:42;6.30;99.90
65692;DHT22;52411;52.716;6.696;2023-02-04T06:58:08;6.20;99.90
65692;DHT22;52411;52.716;6.696;2023-02-04T07:00:34;6.20;99.90
65692;DHT22;52411;52.716;6.696;2023-02-04T07:03:00;6.20;99.90
65692;DHT22;52411;52.716;6.696;2023-02-04T07:05:26;6.20;99.90
65692;DHT22;52411;52.716;6.696;2023-02-04T07:07:51;6.20;99.90
65692;DHT22;52411;52.716;6.696;2023-02-04T07:10:17;6.20;99.90
65692;DHT22;52411;52.716;6.696;2023-02-04T07:12:45;6.20;99.90
65692;DHT22;52411;52.716;6.696;2023-02-04T07:15:11;6.20;99.90
65692;DHT22;52411;52.716;6.696;2023-02-04T07:17:36;6.20;99.90
65692;DHT22;52411;52.716;6.696;2023-02-04T07:20:02;6.20;99.90
65692;DHT22;52411;52.716;6.696;2023-02-04T07:22:28;6.20;99.90
65692;DHT22;52411;52.716;6.696;2023-02-04T07:24:53;6.30;99.90
65692;DHT22;52411;52.716;6.696;2023-02-04T07:27:19;6.30;99.90
65692;DHT22;52411;52.716;6.696;2023-02-04T07:29:45;6.30;99.90
65692;DHT22;52411;52.716;6.696;2023-02-04T07:32:10;6.20;99.90
65692;DHT22;52411;52.716;6.696;2023-02-04T07:34:36;6.20;99.90
65692;DHT22;52411;52.716;6.696;2023-02-04T07:37:02;6.20;99.90
65692;DHT22;52411;52.716;6.696;2023-02-04T07:39:27;6.10;99.90
65692;DHT22;52411;52.716;6.696;2023-02-04T07:41:53;6.10;99.90
65692;DHT22;52411;52.716;6.696;2023-02-04T07:44:18;6.10;99.90
65692;DHT22;52411;52.716;6.696;2023-02-04T07:46:44;6.10;99.90
65692;DHT22;52411;52.716;6.696;2023-02-04T07:49:10;6.10;99.90
65692;DHT22;52411;52.716;6.696;2023-02-04T07:51:35;6.20;99.90
65692;DHT22;52411;52.716;6.696;2023-02-04T07:54:01;6.20;99.90
65692;DHT22;52411;52.716;6.696;2023-02-04T07:56:27;6.20;99.90
65692;DHT22;52411;52.716;6.696;2023-02-04T07:58:52;6.20;99.90
65692;DHT22;52411;52.716;6.696;2023-02-04T08:01:18;6.30;99.90
65692;DHT22;52411;52.716;6.696;2023-02-04T08:03:43;6.30;99.90
65692;DHT22;52411;52.716;6.696;2023-02-04T08:06:09;6.30;99.90
65692;DHT22;52411;52.716;6.696;2023-02-04T08:08:35;6.30;99.90
65692;DHT22;52411;52.716;6.696;2023-02-04T08:11:00;6.30;99.90
65692;DHT22;52411;52.716;6.696;2023-02-04T08:13:26;6.30;99.90
65692;DHT22;52411;52.716;6.696;2023-02-04T08:15:52;6.30;99.90
65692;DHT22;52411;52.716;6.696;2023-02-04T08:18:17;6.30;99.90
65692;DHT22;52411;52.716;6.696;2023-02-04T08:20:43;6.30;99.90
65692;DHT22;52411;52.716;6.696;2023-02-04T08:23:08;6.30;99.90
65692;DHT22;52411;52.716;6.696;2023-02-04T08:25:34;6.30;99.90
65692;DHT22;52411;52.716;6.696;2023-02-04T08:28:00;6.30;99.90
65692;DHT22;52411;52.716;6.696;2023-02-04T08:30:25;6.30;99.90
65692;DHT22;52411;52.716;6.696;2023-02-04T08:32:51;6.30;99.90
65692;DHT22;52411;52.716;6.696;2023-02-04T08:35:17;6.40;99.90
65692;DHT22;52411;52.716;6.696;2023-02-04T08:37:43;6.40;99.90
65692;DHT22;52411;52.716;6.696;2023-02-04T08:40:09;6.40;99.90
65692;DHT22;52411;52.716;6.696;2023-02-04T08:42:35;6.40;99.90
65692;DHT22;52411;52.716;6.696;2023-02-04T08:45:00;6.50;99.90
65692;DHT22;52411;52.716;6.696;2023-02-04T08:47:26;6.50;99.90
65692;DHT22;52411;52.716;6.696;2023-02-04T08:49:51;6.50;99.90
65692;DHT22;52411;52.716;6.696;2023-02-04T08:52:17;6.60;99.90
65692;DHT22;52411;52.716;6.696;2023-02-04T08:54:43;6.60;99.90
65692;DHT22;52411;52.716;6.696;2023-02-04T08:57:09;6.70;99.90
65692;DHT22;52411;52.716;6.696;2023-02-04T08:59:35;6.70;99.90
65692;DHT22;52411;52.716;6.696;2023-02-04T09:02:00;6.80;99.90
65692;DHT22;52411;52.716;6.696;2023-02-04T09:04:27;6.90;99.90
65692;DHT22;52411;52.716;6.696;2023-02-04T09:06:53;6.90;99.90
65692;DHT22;52411;52.716;6.696;2023-02-04T09:09:19;7.00;99.90
65692;DHT22;52411;52.716;6.696;2023-02-04T09:11:46;7.00;99.90
65692;DHT22;52411;52.716;6.696;2023-02-04T09:14:12;7.00;99.90
65692;DHT22;52411;52.716;6.696;2023-02-04T09:16:37;7.10;99.90
65692;DHT22;52411;52.716;6.696;2023-02-04T09:19:03;7.10;99.90
65692;DHT22;52411;52.716;6.696;2023-02-04T09:21:30;7.10;99.90
65692;DHT22;52411;52.716;6.696;2023-02-04T09:23:55;7.10;99.90
65692;DHT22;52411;52.716;6.696;2023-02-04T09:26:21;7.20;99.90
65692;DHT22;52411;52.716;6.696;2023-02-04T09:28:47;7.20;99.90
65692;DHT22;52411;52.716;6.696;2023-02-04T09:31:13;7.20;99.90
65692;DHT22;52411;52.716;6.696;2023-02-04T09:33:39;7.30;99.90
65692;DHT22;52411;52.716;6.696;2023-02-04T09:36:05;7.30;99.90
65692;DHT22;52411;52.716;6.696;2023-02-04T09:38:30;7.20;99.90
65692;DHT22;52411;52.716;6.696;2023-02-04T09:41:01;7.20;99.90
65692;DHT22;52411;52.716;6.696;2023-02-04T09:43:30;7.20;99.90
65692;DHT22;52411;52.716;6.696;2023-02-04T09:45:57;7.20;99.90
65692;DHT22;52411;52.716;6.696;2023-02-04T09:48:23;7.30;99.90
65692;DHT22;52411;52.716;6.696;2023-02-04T09:50:50;7.30;99.90
65692;DHT22;52411;52.716;6.696;2023-02-04T09:53:19;7.30;99.90
65692;DHT22;52411;52.716;6.696;2023-02-04T09:55:46;7.30;99.90
65692;DHT22;52411;52.716;6.696;2023-02-04T09:58:14;7.40;99.90
65692;DHT22;52411;52.716;6.696;2023-02-04T10:00:43;7.40;99.90
65692;DHT22;52411;52.716;6.696;2023-02-04T10:03:15;7.40;99.90
65692;DHT22;52411;52.716;6.696;2023-02-04T10:05:43;7.40;99.90
65692;DHT22;52411;52.716;6.696;2023-02-04T10:08:15;7.40;99.90
65692;DHT22;52411;52.716;6.696;2023-02-04T10:10:42;7.40;99.90
65692;DHT22;52411;52.716;6.696;2023-02-04T10:13:15;7.50;99.90
65692;DHT22;52411;52.716;6.696;2023-02-04T10:15:41;7.50;99.90
65692;DHT22;52411;52.716;6.696;2023-02-04T10:18:07;7.50;99.90
65692;DHT22;52411;52.716;6.696;2023-02-04T10:20:33;7.50;99.90
65692;DHT22;52411;52.716;6.696;2023-02-04T10:22:59;7.50;99.90
65692;DHT22;52411;52.716;6.696;2023-02-04T10:25:25;7.50;99.90
65692;DHT22;52411;52.716;6.696;2023-02-04T10:27:55;7.50;99.90
65692;DHT22;52411;52.716;6.696;2023-02-04T10:30:27;7.50;99.90
65692;DHT22;52411;52.716;6.696;2023-02-04T10:32:53;7.50;99.90
65692;DHT22;52411;52.716;6.696;2023-02-04T10:35:20;7.40;99.90
65692;DHT22;52411;52.716;6.696;2023-02-04T10:37:47;7.40;99.90
65692;DHT22;52411;52.716;6.696;2023-02-04T10:40:31;7.40;99.90
65692;DHT22;52411;52.716;6.696;2023-02-04T10:42:57;7.40;99.90
65692;DHT22;52411;52.716;6.696;2023-02-04T10:45:26;7.40;99.90
65692;DHT22;52411;52.716;6.696;2023-02-04T10:47:53;7.40;99.90
65692;DHT22;52411;52.716;6.696;2023-02-04T10:50:21;7.40;99.90
65692;DHT22;52411;52.716;6.696;2023-02-04T10:52:53;7.40;99.90
65692;DHT22;52411;52.716;6.696;2023-02-04T10:55:39;7.40;99.90
65692;DHT22;52411;52.716;6.696;2023-02-04T10:58:09;7.40;99.90
65692;DHT22;52411;52.716;6.696;2023-02-04T11:00:36;7.50;99.90
65692;DHT22;52411;52.716;6.696;2023-02-04T11:03:18;7.50;99.90
65692;DHT22;52411;52.716;6.696;2023-02-04T11:05:46;7.60;99.90
65692;DHT22;52411;52.716;6.696;2023-02-04T11:08:28;7.70;99.90
65692;DHT22;52411;52.716;6.696;2023-02-04T11:11:00;7.80;99.90
65692;DHT22;52411;52.716;6.696;2023-02-04T11:26:35;8.00;99.90
65692;DHT22;52411;52.716;6.696;2023-02-04T11:31:38;8.00;99.90
65692;DHT22;52411;52.716;6.696;2023-02-04T11:34:23;8.10;99.90
65692;DHT22;52411;52.716;6.696;2023-02-04T11:37:14;8.10;99.90
65692;DHT22;52411;52.716;6.696;2023-02-04T11:39:47;8.10;99.90
65692;DHT22;52411;52.716;6.696;2023-02-04T11:47:39;8.10;99.90
65692;DHT22;52411;52.716;6.696;2023-02-04T11:50:40;8.10;99.90
65692;DHT22;52411;52.716;6.696;2023-02-04T11:53:09;8.10;99.90
65692;DHT22;52411;52.716;6.696;2023-02-04T11:55:42;8.10;99.90
65692;DHT22;52411;52.716;6.696;2023-02-04T11:58:14;8.00;99.90
65692;DHT22;52411;52.716;6.696;2023-02-04T12:00:39;8.00;99.90
65692;DHT22;52411;52.716;6.696;2023-02-04T12:05:48;8.10;99.90
65692;DHT22;52411;52.716;6.696;2023-02-04T12:10:59;8.10;99.90
65692;DHT22;52411;52.716;6.696;2023-02-04T12:13:26;8.10;99.90
65692;DHT22;52411;52.716;6.696;2023-02-04T12:16:03;8.10;99.90
65692;DHT22;52411;52.716;6.696;2023-02-04T12:18:30;8.10;99.90
65692;DHT22;52411;52.716;6.696;2023-02-04T12:20:56;8.10;99.90
65692;DHT22;52411;52.716;6.696;2023-02-04T12:23:23;8.20;99.90
65692;DHT22;52411;52.716;6.696;2023-02-04T12:25:49;8.20;99.90
65692;DHT22;52411;52.716;6.696;2023-02-04T12:28:15;8.20;99.90
65692;DHT22;52411;52.716;6.696;2023-02-04T12:30:41;8.30;99.90
65692;DHT22;52411;52.716;6.696;2023-02-04T12:33:07;8.30;99.90
65692;DHT22;52411;52.716;6.696;2023-02-04T12:35:33;8.30;99.90
65692;DHT22;52411;52.716;6.696;2023-02-04T12:37:59;8.30;99.90
65692;DHT22;52411;52.716;6.696;2023-02-04T12:40:25;8.40;99.90
65692;DHT22;52411;52.716;6.696;2023-02-04T12:42:50;8.30;99.90
65692;DHT22;52411;52.716;6.696;2023-02-04T12:45:16;8.40;99.90
65692;DHT22;52411;52.716;6.696;2023-02-04T12:47:42;8.30;99.90
65692;DHT22;52411;52.716;6.696;2023-02-04T12:50:10;8.40;99.90
65692;DHT22;52411;52.716;6.696;2023-02-04T12:52:37;8.30;99.90
65692;DHT22;52411;52.716;6.696;2023-02-04T12:55:04;8.40;99.90
65692;DHT22;52411;52.716;6.696;2023-02-04T12:57:31;8.30;99.90
65692;DHT22;52411;52.716;6.696;2023-02-04T12:59:57;8.40;99.90
65692;DHT22;52411;52.716;6.696;2023-02-04T13:02:25;8.40;99.90
65692;DHT22;52411;52.716;6.696;2023-02-04T13:04:51;8.40;99.90
65692;DHT22;52411;52.716;6.696;2023-02-04T13:07:17;8.40;99.90
65692;DHT22;52411;52.716;6.696;2023-02-04T13:09:42;8.30;99.90
65692;DHT22;52411;52.716;6.696;2023-02-04T13:12:10;8.30;99.90
65692;DHT22;52411;52.716;6.696;2023-02-04T13:14:38;8.40;99.90
65692;DHT22;52411;52.716;6.696;2023-02-04T13:17:05;8.40;99.90
65692;DHT22;52411;52.716;6.696;2023-02-04T13:19:30;8.40;99.90
65692;DHT22;52411;52.716;6.696;2023-02-04T13:21:57;8.40;99.90
65692;DHT22;52411;52.716;6.696;2023-02-04T13:24:23;8.50;99.90
65692;DHT22;52411;52.716;6.696;2023-02-04T13:26:49;8.50;99.90
65692;DHT22;52411;52.716;6.696;2023-02-04T13:29:14;8.50;99.90
65692;DHT22;52411;52.716;6.696;2023-02-04T13:31:40;8.50;99.90
65692;DHT22;52411;52.716;6.696;2023-02-04T13:34:06;8.50;99.90
65692;DHT22;52411;52.716;6.696;2023-02-04T13:36:31;8.50;99.90
65692;DHT22;52411;52.716;6.696;2023-02-04T13:38:57;8.60;99.90
65692;DHT22;52411;52.716;6.696;2023-02-04T13:41:25;8.60;99.90
65692;DHT22;52411;52.716;6.696;2023-02-04T13:43:51;8.60;99.90
65692;DHT22;52411;52.716;6.696;2023-02-04T13:46:17;8.60;99.90
65692;DHT22;52411;52.716;6.696;2023-02-04T13:48:42;8.60;99.90
65692;DHT22;52411;52.716;6.696;2023-02-04T13:51:09;8.50;99.90
65692;DHT22;52411;52.716;6.696;2023-02-04T13:53:34;8.60;99.90
65692;DHT22;52411;52.716;6.696;2023-02-04T13:56:00;8.60;99.90
65692;DHT22;52411;52.716;6.696;2023-02-04T13:58:26;8.60;99.90
65692;DHT22;52411;52.716;6.696;2023-02-04T14:00:52;8.60;99.90
65692;DHT22;52411;52.716;6.696;2023-02-04T14:03:23;8.60;99.90
65692;DHT22;52411;52.716;6.696;2023-02-04T14:05:49;8.70;99.90
65692;DHT22;52411;52.716;6.696;2023-02-04T14:08:14;8.70;99.90
65692;DHT22;52411;52.716;6.696;2023-02-04T14:10:40;8.70;99.90
65692;DHT22;52411;52.716;6.696;2023-02-04T14:13:05;8.70;99.90
65692;DHT22;52411;52.716;6.696;2023-02-04T14:15:31;8.70;99.90
65692;DHT22;52411;52.716;6.696;2023-02-04T14:17:59;8.70;99.90
65692;DHT22;52411;52.716;6.696;2023-02-04T14:20:25;8.70;99.90
65692;DHT22;52411;52.716;6.696;2023-02-04T14:22:51;8.70;99.90
65692;DHT22;52411;52.716;6.696;2023-02-04T14:25:17;8.80;99.90
65692;DHT22;52411;52.716;6.696;2023-02-04T14:27:42;8.80;99.90
65692;DHT22;52411;52.716;6.696;2023-02-04T14:30:20;8.80;99.90
65692;DHT22;52411;52.716;6.696;2023-02-04T14:32:46;8.90;99.90
65692;DHT22;52411;52.716;6.696;2023-02-04T14:35:13;8.90;99.90
65692;DHT22;52411;52.716;6.696;2023-02-04T14:37:38;8.90;99.90
65692;DHT22;52411;52.716;6.696;2023-02-04T14:40:05;8.90;99.90
65692;DHT22;52411;52.716;6.696;2023-02-04T14:42:31;9.00;99.90
65692;DHT22;52411;52.716;6.696;2023-02-04T14:44:56;9.10;99.90
65692;DHT22;52411;52.716;6.696;2023-02-04T14:47:22;9.10;99.90
65692;DHT22;52411;52.716;6.696;2023-02-04T14:49:48;9.10;99.90
65692;DHT22;52411;52.716;6.696;2023-02-04T14:52:13;9.10;99.90
65692;DHT22;52411;52.716;6.696;2023-02-04T14:54:39;9.20;99.90
65692;DHT22;52411;52.716;6.696;2023-02-04T14:57:05;9.20;99.90
65692;DHT22;52411;52.716;6.696;2023-02-04T14:59:36;9.30;99.90
65692;DHT22;52411;52.716;6.696;2023-02-04T15:02:03;9.30;99.90
65692;DHT22;52411;52.716;6.696;2023-02-04T15:04:28;9.50;99.90
65692;DHT22;52411;52.716;6.696;2023-02-04T15:06:54;9.50;99.90
65692;DHT22;52411;52.716;6.696;2023-02-04T15:09:22;9.60;99.90
65692;DHT22;52411;52.716;6.696;2023-02-04T15:11:48;9.60;99.90
65692;DHT22;52411;52.716;6.696;2023-02-04T15:14:14;9.50;99.90
65692;DHT22;52411;52.716;6.696;2023-02-04T15:16:40;9.30;99.90
65692;DHT22;52411;52.716;6.696;2023-02-04T15:19:08;9.20;99.90
65692;DHT22;52411;52.716;6.696;2023-02-04T15:21:33;9.00;99.90
65692;DHT22;52411;52.716;6.696;2023-02-04T15:23:59;9.00;99.90
65692;DHT22;52411;52.716;6.696;2023-02-04T15:26:25;9.00;99.90
65692;DHT22;52411;52.716;6.696;2023-02-04T15:28:50;8.90;99.90
65692;DHT22;52411;52.716;6.696;2023-02-04T15:31:16;8.90;99.90
65692;DHT22;52411;52.716;6.696;2023-02-04T15:33:41;8.80;99.90
65692;DHT22;52411;52.716;6.696;2023-02-04T15:36:07;8.80;99.90
65692;DHT22;52411;52.716;6.696;2023-02-04T15:38:33;8.80;99.90
65692;DHT22;52411;52.716;6.696;2023-02-04T15:40:59;9.00;99.90
65692;DHT22;52411;52.716;6.696;2023-02-04T15:43:24;9.00;99.90
65692;DHT22;52411;52.716;6.696;2023-02-04T15:45:50;9.10;99.90
65692;DHT22;52411;52.716;6.696;2023-02-04T15:48:15;9.20;99.90
65692;DHT22;52411;52.716;6.696;2023-02-04T15:50:43;9.10;99.90
65692;DHT22;52411;52.716;6.696;2023-02-04T15:53:08;8.90;99.90
65692;DHT22;52411;52.716;6.696;2023-02-04T15:55:34;8.70;99.90
65692;DHT22;52411;52.716;6.696;2023-02-04T15:57:59;8.40;99.90
65692;DHT22;52411;52.716;6.696;2023-02-04T16:00:25;8.20;99.90
65692;DHT22;52411;52.716;6.696;2023-02-04T16:02:50;7.90;99.90
65692;DHT22;52411;52.716;6.696;2023-02-04T16:05:16;7.80;99.90
65692;DHT22;52411;52.716;6.696;2023-02-04T16:07:42;7.50;99.90
65692;DHT22;52411;52.716;6.696;2023-02-04T16:10:07;7.30;99.90